Rechercher aéroport 
image banner adimage banner ad
image banner ad

DAAJ - Djanet / Tiska

Situé à Djanet, Algeria

ICAO - DAAJ, IATA - DJG

Données fournies par Airmate  

Information générale

Coordonnées: N24°17'35" E9°27'7"
Élévation : 3169 feet MSL.
 
Voir autres Aéroports à Illizi Province

Données opérationnelles

Accessible au public
Heure actuelle UTC:
Heure actuelle locale:
Météo
METAR: DAAJ 290100Z 08009KT CAVOK 25/M03 Q1019
TAF: TAF DAAJ 282300Z 2900/2924 08012KT 9999 FEW046
Voir NOTAMs / SUP AIP / TFR affectant cet aéroport [VIEW]
Fréquences de communication: [VIEW]

Pistes:

Identifiant RWYQFULongueur (ft)Largeur (ft)SurfaceLDA (ft)
0222°7874148ASP
20202°7874148
12125°9843148
30305°9843148

Coordonnées de l'aéroport

Adresse: Djanet Algeria

Vue satellite de DAAJ